Terminal Aerodrome Forecast
Issued by NWS Los Angeles, CA

Home | Current Version | Previous Version | Text Only | Print | Product List | Glossary On
Versions: 1 2 3 4 5 6 7 8 9 10 11 12 13 14 15 16 17 18 19
000
FTUS46 KLOX 290206 AAA
TAFSMX
TAF AMD
KSMX 290206Z 2902/2924 30015KT P6SM BKN015
     FM290600 31005KT P6SM OVC012
     FM291900 31013KT P6SM SCT250
     FM292100 31017G25KT P6SM SCT250=

USA.gov is the U.S. government's official web portal to all federal, state and local government web resources and services.